Aérodrome :
LOGIN :

S'inscrire | Disclaimer

   EN    FR    IT 

 










Légende :    VFR   VFR Marginal   IFR   IFR Intensif   IFR Très Intensif
Visi : 
Plafond : 
>= 8 km
>= 3000ft
5 à 8 km
1000 à 3000 ft
1500m à 5 km
500 à 1000 ft
800 à 1500m
200 à 500 ft
< 800m
< 200 ft
Symboles :   Orages  Brouillard  Fortes neiges  Fortes précipitations  Vent > 20 kt
SIGMETs :   Divers  Orages  Givrage  Turbulence  Onde Orograph.  Cendres Volcan.






- Altitude de l'aérodrome : 1300 ft
- Code IATA : LIG


LFBL - Limoges

DERNIER METAR :
  • 230300Z AUTO 04008KT CAVOK 13/11 Q1010 TEMPO 12015G25KT 4000 RA BKN003 SCT026CB

METARs EXPIRÉS :
  • 230230Z AUTO 04006KT CAVOK 13/11 Q1010 TEMPO 12015G25KT 4000 RA BKN003 SCT026CB
  • 230200Z AUTO 04007KT CAVOK 13/11 Q1011 TEMPO 12015G25KT 4000 RA BKN003 SCT026CB
  • 230130Z AUTO 06006KT 9999 FEW034/// BKN110/// ///TCU 13/12 Q1011 TEMPO 12015G25KT 4000 RA BKN003 SCT026CB
  • 230100Z AUTO 07008KT 040V100 9999 RA ///CB 13/12 Q1011 BECMG NSW SCT030 BKN090
  • 230030Z AUTO 07007KT 9999 ///TCU 13/11 Q1011 BECMG SCT030 BKN090

TAF AMD TAF LFBL
Valide du 23 à 01h jusqu'au 24 à 00h UTC


230110Z 2301/2324 08012KT 9999 SCT030 BKN090
PROB40
TEMPO 2301/2312 12015G25KT 4000 RA BKN003 SCT026CB
ATIS : +33 5 55 48 40 37



MET'MAP, la Météo Aéronautique d'un coup d'oeil ! - Copyright ORBIFLY Décembre 2007 - Disclaimer

ORBIFLY MET'MAP TEAM :

Programmation & Développement : Alexandra Zaïnal
Conception & Développement : Baudouin d'Aumeries
Co-Programmation & Développement : Marc-Olivier Méhu
Soutien technique & logistique : Manuel Goepfert

Contact : metmap@orbifly.com




SOURCES & CREDITS :

   NOAA